Time;durP1;ratioP1;P1;durP2;ratioP2;P2;SDS_P1;SDS_P2;PMS_P1;PMS_P2;Temp;Humidity;BMP_temperature;BMP_pressure;BME280_temperature;BME280_humidity;BME280_pressure;Samples;Min_cycle;Max_cycle;Signal;HPM_P1;HPM_P2
2023/05/29 00:00:54;;;;;;;3.30;1.20;;;16.00;60.20;;;;;;5049979;28;20183;-70
2023/05/29 00:03:22;;;;;;;5.50;1.67;;;16.00;60.40;;;;;;5051864;28;20195;-69
2023/05/29 00:05:49;;;;;;;4.13;1.20;;;16.20;59.60;;;;;;5051068;28;20239;-69
2023/05/29 00:08:16;;;;;;;5.30;1.20;;;16.30;59.60;;;;;;5049768;28;20212;-71
2023/05/29 00:10:44;;;;;;;4.80;0.90;;;16.40;58.50;;;;;;5052552;28;20528;-68
2023/05/29 00:13:12;;;;;;;2.30;1.13;;;16.50;58.60;;;;;;5051129;28;20190;-71
2023/05/29 00:15:39;;;;;;;3.27;1.00;;;16.50;59.10;;;;;;5050762;28;20591;-70
2023/05/29 00:18:07;;;;;;;2.47;1.10;;;16.70;58.00;;;;;;5050666;28;20270;-70
2023/05/29 00:20:35;;;;;;;1.53;0.93;;;16.70;57.60;;;;;;5051937;28;20246;-69
2023/05/29 00:23:04;;;;;;;5.87;1.30;;;16.70;57.70;;;;;;5049398;28;20225;-70
2023/05/29 00:25:32;;;;;;;1.40;1.00;;;16.80;57.00;;;;;;5051717;28;20184;-68
2023/05/29 00:27:59;;;;;;;2.43;1.03;;;16.90;57.50;;;;;;5050710;28;20187;-69
2023/05/29 00:30:26;;;;;;;2.60;1.00;;;17.10;57.70;;;;;;5052348;28;20235;-68
2023/05/29 00:32:54;;;;;;;2.30;1.10;;;17.20;57.60;;;;;;5048300;28;20200;-68
2023/05/29 00:35:21;;;;;;;4.33;1.27;;;17.20;56.80;;;;;;5050797;28;20229;-69
2023/05/29 00:37:48;;;;;;;2.40;1.27;;;17.40;56.60;;;;;;5035747;28;20696;-69
2023/05/29 00:40:16;;;;;;;2.03;1.43;;;17.40;55.50;;;;;;5046659;28;20282;-71
2023/05/29 00:42:43;;;;;;;1.73;1.07;;;17.50;55.60;;;;;;5050616;28;20201;-67
2023/05/29 00:45:13;;;;;;;1.63;0.80;;;17.70;55.20;;;;;;5051873;28;20188;-68
2023/05/29 00:47:41;;;;;;;1.10;0.70;;;17.70;54.20;;;;;;5048078;28;20737;-71
2023/05/29 00:50:16;;;;;;;1.23;0.80;;;17.70;54.10;;;;;;5050960;28;20182;-71
2023/05/29 00:52:45;;;;;;;0.73;0.70;;;17.70;54.70;;;;;;5050699;28;20182;-71
2023/05/29 00:55:13;;;;;;;0.90;0.80;;;17.90;53.90;;;;;;5049310;28;20203;-72
2023/05/29 00:57:41;;;;;;;2.00;0.93;;;17.90;52.50;;;;;;5049975;28;20303;-69
2023/05/29 01:00:13;;;;;;;0.77;0.70;;;18.00;52.80;;;;;;5051361;28;20191;-68
2023/05/29 01:02:44;;;;;;;2.47;0.63;;;17.90;52.10;;;;;;5049909;28;20192;-72
2023/05/29 01:05:15;;;;;;;0.80;0.70;;;18.10;51.70;;;;;;5048670;28;20249;-70
2023/05/29 01:07:43;;;;;;;1.60;0.70;;;18.20;51.80;;;;;;5048201;28;20188;-69
2023/05/29 01:10:11;;;;;;;1.47;0.90;;;18.20;51.60;;;;;;5050101;28;20633;-71
2023/05/29 01:13:05;;;;;;;0.93;0.73;;;18.40;51.50;;;;;;5049833;28;20546;-71
2023/05/29 01:15:38;;;;;;;0.77;0.70;;;18.40;50.80;;;;;;5048085;28;20184;-70
2023/05/29 01:18:13;;;;;;;3.13;0.77;;;18.60;51.10;;;;;;5043476;28;20219;-69
2023/05/29 01:21:24;;;;;;;0.80;0.60;;;18.90;50.80;;;;;;5042572;28;20193;-72
2023/05/29 01:23:52;;;;;;;1.47;1.00;;;19.20;50.00;;;;;;4946986;28;20191;-69
2023/05/29 01:26:55;;;;;;;2.83;0.80;;;19.30;49.10;;;;;;4950019;29;20264;-69
2023/05/29 01:29:33;;;;;;;5.67;0.77;;;19.30;48.30;;;;;;5020499;28;20268;-73
2023/05/29 01:32:01;;;;;;;2.80;0.80;;;19.30;48.10;;;;;;5048675;28;20222;-71
2023/05/29 01:34:29;;;;;;;1.30;0.90;;;19.20;47.60;;;;;;5050223;28;20701;-67
2023/05/29 01:36:56;;;;;;;1.53;0.80;;;19.30;47.70;;;;;;5048335;28;20190;-68
2023/05/29 01:39:25;;;;;;;1.37;0.80;;;19.40;47.70;;;;;;5050134;28;20237;-69
2023/05/29 01:41:54;;;;;;;2.80;0.90;;;19.50;47.90;;;;;;5047664;28;20186;-72
2023/05/29 01:44:23;;;;;;;2.63;0.70;;;19.80;47.40;;;;;;5046323;28;20253;-68
2023/05/29 01:46:51;;;;;;;2.50;1.00;;;19.90;46.80;;;;;;5046636;28;20184;-68
2023/05/29 01:49:19;;;;;;;2.07;0.80;;;20.00;46.70;;;;;;5049708;28;20195;-70
2023/05/29 01:51:47;;;;;;;1.10;0.80;;;20.10;46.70;;;;;;5046673;28;20195;-68
2023/05/29 01:54:14;;;;;;;1.70;0.90;;;20.10;45.90;;;;;;5047534;28;20643;-70
2023/05/29 01:56:42;;;;;;;2.30;1.00;;;20.10;46.20;;;;;;5050504;28;20184;-72
2023/05/29 01:59:12;;;;;;;3.23;0.70;;;20.30;45.60;;;;;;5050034;28;20223;-70
2023/05/29 02:01:43;;;;;;;2.57;0.80;;;20.10;45.90;;;;;;5046665;28;20293;-67
2023/05/29 02:04:10;;;;;;;1.27;0.80;;;19.90;46.50;;;;;;5049763;28;20646;-68
2023/05/29 02:06:38;;;;;;;4.10;0.97;;;19.80;46.60;;;;;;5051346;28;20183;-68
2023/05/29 02:09:06;;;;;;;2.93;0.93;;;19.90;46.70;;;;;;5050850;28;20184;-68
2023/05/29 02:11:33;;;;;;;1.93;0.60;;;20.20;46.10;;;;;;5051110;28;20183;-68
2023/05/29 02:14:02;;;;;;;1.10;0.80;;;20.20;45.70;;;;;;5054305;28;20187;-66
2023/05/29 02:16:33;;;;;;;1.77;0.70;;;20.40;46.70;;;;;;5053776;28;20264;-68
2023/05/29 02:19:02;;;;;;;2.60;0.70;;;20.60;46.70;;;;;;5048803;28;20243;-68
2023/05/29 02:21:29;;;;;;;1.43;0.70;;;20.60;45.90;;;;;;5054204;28;20676;-68
2023/05/29 02:23:56;;;;;;;0.80;0.60;;;20.80;44.90;;;;;;5054788;28;20633;-71
2023/05/29 02:26:24;;;;;;;1.13;0.90;;;20.60;44.70;;;;;;5054515;28;20195;-70
2023/05/29 02:28:51;;;;;;;1.03;0.70;;;20.80;44.80;;;;;;5053643;28;20180;-70
2023/05/29 02:31:18;;;;;;;0.60;0.57;;;20.70;44.40;;;;;;5053958;28;20220;-72
2023/05/29 02:33:46;;;;;;;1.93;0.80;;;20.80;44.30;;;;;;5037038;28;20219;-69
2023/05/29 02:36:13;;;;;;;1.67;0.70;;;20.70;44.90;;;;;;5054090;28;20184;-70
2023/05/29 02:38:41;;;;;;;2.17;0.60;;;20.50;45.20;;;;;;5054467;28;20208;-70
2023/05/29 02:41:08;;;;;;;1.73;0.60;;;20.50;45.00;;;;;;5054058;28;20661;-67
2023/05/29 02:43:35;;;;;;;1.10;0.60;;;20.80;43.90;;;;;;5054049;28;20618;-70
2023/05/29 02:46:03;;;;;;;3.73;0.80;;;21.00;43.30;;;;;;5051659;28;20203;-69
2023/05/29 02:48:30;;;;;;;2.20;0.50;;;21.40;43.30;;;;;;5051232;28;20176;-68
2023/05/29 02:50:58;;;;;;;2.50;0.90;;;21.50;42.70;;;;;;5053263;28;20630;-72
2023/05/29 02:53:25;;;;;;;2.10;0.53;;;21.60;42.20;;;;;;5052066;28;20180;-68
2023/05/29 02:55:54;;;;;;;0.97;0.60;;;21.60;42.40;;;;;;5053145;28;20184;-69
2023/05/29 02:58:21;;;;;;;1.00;0.60;;;21.70;42.10;;;;;;5050198;28;20811;-72
2023/05/29 03:00:50;;;;;;;1.13;0.60;;;21.80;42.20;;;;;;5052305;28;20632;-68
2023/05/29 03:03:17;;;;;;;0.50;0.50;;;22.10;42.20;;;;;;5049215;28;20187;-70
2023/05/29 03:05:45;;;;;;;1.80;0.70;;;22.10;41.00;;;;;;5049943;28;20180;-68
2023/05/29 03:08:12;;;;;;;2.33;0.60;;;22.10;41.60;;;;;;5053025;28;20191;-68
2023/05/29 03:10:39;;;;;;;1.00;0.50;;;22.10;41.20;;;;;;5056616;28;20191;-69
2023/05/29 03:13:07;;;;;;;2.20;0.80;;;22.30;41.00;;;;;;5052161;28;20192;-68
2023/05/29 03:15:34;;;;;;;3.93;0.70;;;22.30;41.10;;;;;;5050323;28;20180;-71
2023/05/29 03:18:02;;;;;;;0.87;0.70;;;22.30;41.10;;;;;;5051375;28;20204;-70
2023/05/29 03:20:29;;;;;;;3.53;0.60;;;22.70;40.70;;;;;;5050015;28;20194;-71
2023/05/29 03:22:56;;;;;;;4.47;0.80;;;22.60;39.20;;;;;;5053275;28;20187;-69
2023/05/29 03:25:24;;;;;;;0.40;0.40;;;22.50;39.60;;;;;;5031924;28;20168;-70
2023/05/29 03:27:51;;;;;;;1.40;0.43;;;22.70;39.60;;;;;;5047735;28;20200;-67
2023/05/29 03:30:20;;;;;;;0.83;0.40;;;22.80;39.20;;;;;;5052633;28;20637;-70
2023/05/29 03:32:47;;;;;;;3.27;0.47;;;23.00;38.30;;;;;;5052723;28;20188;-68
2023/05/29 03:35:15;;;;;;;0.63;0.40;;;22.90;37.80;;;;;;5049606;28;20303;-69
2023/05/29 03:37:42;;;;;;;2.63;0.50;;;22.40;38.00;;;;;;5051497;28;20222;-69
2023/05/29 03:40:10;;;;;;;0.77;0.30;;;22.30;38.10;;;;;;5051555;28;20194;-69
2023/05/29 03:42:37;;;;;;;1.07;0.50;;;22.10;38.50;;;;;;5049843;28;20538;-66
2023/05/29 03:45:05;;;;;;;0.60;0.50;;;22.30;38.00;;;;;;5035890;28;20192;-69
2023/05/29 03:47:32;;;;;;;0.40;0.40;;;22.60;37.70;;;;;;5051324;28;20528;-72
2023/05/29 03:50:00;;;;;;;0.67;0.50;;;22.60;37.40;;;;;;5051908;28;20169;-69
2023/05/29 03:52:27;;;;;;;0.40;0.40;;;22.50;37.50;;;;;;5050052;28;20180;-69
2023/05/29 03:54:54;;;;;;;0.80;0.50;;;22.30;38.10;;;;;;5051070;28;20258;-71
2023/05/29 03:57:22;;;;;;;4.60;0.43;;;22.30;37.90;;;;;;5043302;28;20211;-68
2023/05/29 03:59:49;;;;;;;0.60;0.40;;;22.30;37.70;;;;;;5049753;28;20180;-70
2023/05/29 04:02:16;;;;;;;3.00;0.60;;;22.20;37.60;;;;;;5048017;28;20607;-69
2023/05/29 04:04:44;;;;;;;1.23;0.40;;;22.30;37.10;;;;;;5051845;28;20176;-69
2023/05/29 04:07:11;;;;;;;0.40;0.40;;;22.30;37.40;;;;;;5052650;28;20188;-69
2023/05/29 04:09:39;;;;;;;0.60;0.60;;;22.30;37.30;;;;;;5050663;28;20657;-71
2023/05/29 04:12:06;;;;;;;4.00;0.60;;;22.30;37.50;;;;;;5049343;28;20541;-70
2023/05/29 04:14:34;;;;;;;0.80;0.60;;;22.30;37.50;;;;;;5048875;28;20183;-69
2023/05/29 04:17:01;;;;;;;0.60;0.57;;;22.50;37.10;;;;;;5045730;28;20525;-69
2023/05/29 04:19:28;;;;;;;2.80;0.70;;;22.50;36.90;;;;;;5051293;28;20195;-68
2023/05/29 04:21:55;;;;;;;0.77;0.50;;;22.70;36.60;;;;;;5030555;28;20231;-70
2023/05/29 04:24:24;;;;;;;0.87;0.60;;;22.50;37.30;;;;;;5045663;28;20180;-66
2023/05/29 04:26:52;;;;;;;3.10;0.80;;;22.90;36.70;;;;;;5051139;28;20633;-70
2023/05/29 04:29:19;;;;;;;0.60;0.60;;;22.80;36.60;;;;;;5044142;28;20206;-70
2023/05/29 04:31:47;;;;;;;6.10;0.80;;;22.90;36.60;;;;;;5042083;28;20235;-69
2023/05/29 04:34:16;;;;;;;2.20;0.50;;;22.50;36.70;;;;;;5032443;28;20283;-70
2023/05/29 04:36:44;;;;;;;2.10;0.67;;;22.60;36.00;;;;;;5050929;28;20231;-67
2023/05/29 04:39:12;;;;;;;1.77;0.60;;;22.50;35.40;;;;;;5049880;28;20748;-69
2023/05/29 04:41:40;;;;;;;1.53;0.50;;;22.20;35.50;;;;;;5049454;28;20192;-67
2023/05/29 04:44:09;;;;;;;1.70;0.50;;;21.90;36.00;;;;;;5050474;28;20184;-74
2023/05/29 04:46:38;;;;;;;1.77;1.03;;;21.90;35.80;;;;;;5049830;28;20180;-73
2023/05/29 04:49:05;;;;;;;0.70;0.70;;;22.40;35.50;;;;;;5049772;28;20175;-73
2023/05/29 04:51:32;;;;;;;4.07;0.93;;;22.50;35.90;;;;;;5049276;28;20229;-71
2023/05/29 04:53:59;;;;;;;2.80;0.77;;;22.30;36.30;;;;;;5050426;28;20309;-71
2023/05/29 04:56:27;;;;;;;2.20;0.63;;;22.30;36.60;;;;;;5049435;28;20192;-71
2023/05/29 04:58:54;;;;;;;1.77;0.53;;;22.30;36.10;;;;;;5050535;28;20227;-68
2023/05/29 05:01:23;;;;;;;2.27;0.60;;;22.30;36.10;;;;;;5049761;28;20184;-67
2023/05/29 05:03:50;;;;;;;3.33;0.70;;;22.00;35.80;;;;;;5049493;28;20264;-67
2023/05/29 05:06:18;;;;;;;2.37;0.63;;;21.80;36.00;;;;;;5047479;28;20225;-65
2023/05/29 05:08:45;;;;;;;2.10;0.93;;;21.80;35.80;;;;;;5046174;28;20183;-69
2023/05/29 05:11:13;;;;;;;1.00;0.60;;;21.90;35.30;;;;;;5048570;28;21784;-66
2023/05/29 05:13:41;;;;;;;2.00;0.70;;;21.80;34.80;;;;;;5048661;28;20611;-67
2023/05/29 05:16:08;;;;;;;1.13;0.60;;;21.60;35.00;;;;;;5050257;28;20184;-68
2023/05/29 05:18:36;;;;;;;1.80;0.70;;;21.60;35.30;;;;;;5046432;28;20223;-69
2023/05/29 05:21:04;;;;;;;0.50;0.50;;;21.80;34.90;;;;;;5048900;28;21630;-71
2023/05/29 05:23:31;;;;;;;2.10;0.60;;;21.80;35.30;;;;;;5050066;28;20638;-70
2023/05/29 05:25:59;;;;;;;0.97;0.63;;;21.90;34.80;;;;;;5046846;28;21008;-71
2023/05/29 05:28:26;;;;;;;0.70;0.70;;;22.00;35.00;;;;;;5049235;28;20223;-71
2023/05/29 05:30:53;;;;;;;2.97;0.70;;;21.80;35.50;;;;;;5044405;28;20727;-67
2023/05/29 05:33:20;;;;;;;2.17;0.70;;;21.80;35.80;;;;;;5047989;28;20553;-68
2023/05/29 05:35:48;;;;;;;1.43;0.70;;;21.70;35.50;;;;;;5047644;28;20210;-66
2023/05/29 05:38:16;;;;;;;3.83;0.87;;;21.70;35.40;;;;;;5049009;28;20275;-67
2023/05/29 05:40:44;;;;;;;1.13;0.90;;;21.60;35.70;;;;;;5050424;28;20184;-71
2023/05/29 05:43:12;;;;;;;1.37;0.80;;;21.80;35.90;;;;;;5042277;28;20196;-67
2023/05/29 05:45:42;;;;;;;1.10;1.00;;;21.80;35.60;;;;;;5045473;28;20289;-67
2023/05/29 05:48:09;;;;;;;2.20;0.80;;;21.40;36.20;;;;;;5051743;28;20188;-66
2023/05/29 05:50:36;;;;;;;0.70;0.70;;;21.50;36.00;;;;;;5052718;28;20229;-69
2023/05/29 05:53:04;;;;;;;0.97;0.70;;;21.50;35.70;;;;;;5051995;28;20646;-69
2023/05/29 05:55:31;;;;;;;1.10;0.77;;;21.50;35.90;;;;;;5052653;28;20556;-69
2023/05/29 05:58:00;;;;;;;1.53;0.70;;;21.50;35.80;;;;;;5052791;28;20734;-69
2023/05/29 06:00:28;;;;;;;1.07;0.80;;;21.50;36.20;;;;;;5052630;28;20183;-69
2023/05/29 06:02:55;;;;;;;2.07;1.00;;;21.60;36.00;;;;;;5052353;28;20245;-68
2023/05/29 06:05:22;;;;;;;2.67;0.87;;;21.60;36.10;;;;;;5054961;28;20233;-70
2023/05/29 06:07:50;;;;;;;5.40;1.00;;;20.60;37.40;;;;;;5053709;28;20267;-70
2023/05/29 06:10:17;;;;;;;1.07;0.80;;;20.00;38.40;;;;;;5054905;28;20191;-68
2023/05/29 06:12:44;;;;;;;1.80;0.90;;;19.80;39.00;;;;;;5050490;28;20649;-69
2023/05/29 06:15:12;;;;;;;1.60;0.80;;;19.70;39.30;;;;;;5052586;28;20187;-70
2023/05/29 06:17:39;;;;;;;7.93;0.90;;;19.40;39.50;;;;;;5053362;28;20200;-67
2023/05/29 06:20:10;;;;;;;2.10;0.70;;;19.30;39.70;;;;;;5051376;28;20249;-69
2023/05/29 06:22:41;;;;;;;1.73;0.80;;;19.20;40.30;;;;;;5055158;28;20205;-69
2023/05/29 06:25:09;;;;;;;1.77;0.80;;;19.10;40.60;;;;;;5054009;28;20554;-69
2023/05/29 06:27:37;;;;;;;2.93;1.00;;;19.00;40.70;;;;;;5053567;28;20179;-69
2023/05/29 06:30:05;;;;;;;4.27;0.90;;;18.90;40.90;;;;;;5053014;28;20180;-69
2023/05/29 06:32:32;;;;;;;1.77;0.80;;;18.80;41.50;;;;;;5054201;28;20217;-67
2023/05/29 06:34:59;;;;;;;2.27;0.90;;;18.70;42.00;;;;;;5050889;28;20191;-67
2023/05/29 06:37:27;;;;;;;2.23;0.83;;;18.60;42.40;;;;;;5052896;28;20326;-68
2023/05/29 06:39:54;;;;;;;5.70;0.90;;;18.50;42.20;;;;;;5052291;28;20210;-72
2023/05/29 06:42:22;;;;;;;2.30;0.70;;;18.40;42.00;;;;;;5052608;28;20176;-69
2023/05/29 06:44:49;;;;;;;2.70;0.93;;;18.30;42.30;;;;;;5052380;28;20180;-69
2023/05/29 06:47:17;;;;;;;2.47;0.93;;;18.10;42.40;;;;;;5051016;28;20172;-69
2023/05/29 06:49:44;;;;;;;2.33;1.00;;;18.10;42.30;;;;;;5048808;28;20765;-72
2023/05/29 06:52:11;;;;;;;2.27;0.97;;;17.90;42.80;;;;;;5053481;28;20191;-68
2023/05/29 06:54:40;;;;;;;3.33;0.90;;;17.90;42.80;;;;;;5049405;28;20210;-68
2023/05/29 06:57:07;;;;;;;1.10;0.77;;;17.80;43.10;;;;;;5053215;28;20176;-70
2023/05/29 06:59:34;;;;;;;3.43;0.80;;;17.70;43.30;;;;;;5047791;28;20202;-68
2023/05/29 07:02:02;;;;;;;3.90;0.97;;;17.70;43.30;;;;;;5052208;28;20172;-68
2023/05/29 07:04:29;;;;;;;2.87;1.00;;;17.70;43.30;;;;;;5050062;28;20610;-69
2023/05/29 07:06:56;;;;;;;1.63;0.93;;;17.60;43.70;;;;;;5053542;28;20178;-69
2023/05/29 07:09:25;;;;;;;1.60;0.80;;;17.50;43.70;;;;;;5054312;28;20186;-68
2023/05/29 07:11:52;;;;;;;2.57;1.07;;;17.50;43.90;;;;;;5052314;28;20176;-69
2023/05/29 07:14:20;;;;;;;1.60;0.70;;;17.40;43.80;;;;;;5049349;28;20237;-69
2023/05/29 07:16:47;;;;;;;5.60;1.10;;;17.30;44.20;;;;;;5051532;28;20210;-76
2023/05/29 07:19:14;;;;;;;2.77;1.13;;;17.30;44.30;;;;;;5053436;28;20231;-69
2023/05/29 07:21:42;;;;;;;5.87;1.30;;;17.30;44.40;;;;;;5052604;28;20245;-70
2023/05/29 07:24:09;;;;;;;4.97;1.10;;;17.30;44.30;;;;;;5049325;28;20572;-71
2023/05/29 07:26:36;;;;;;;1.37;0.93;;;17.20;44.80;;;;;;5052187;28;20192;-71
2023/05/29 07:29:05;;;;;;;4.40;1.23;;;17.10;45.10;;;;;;5052898;28;20193;-69
2023/05/29 07:31:32;;;;;;;2.57;1.10;;;17.00;45.30;;;;;;5052420;28;20242;-71
2023/05/29 07:34:00;;;;;;;1.23;1.10;;;17.00;45.30;;;;;;5052737;28;20198;-70
2023/05/29 07:36:34;;;;;;;2.83;1.10;;;17.00;45.30;;;;;;5036891;28;20182;-68
2023/05/29 07:39:01;;;;;;;1.97;1.10;;;16.90;45.40;;;;;;5050536;28;20669;-69
2023/05/29 07:41:28;;;;;;;3.93;1.50;;;16.90;45.70;;;;;;5052030;28;20188;-71
2023/05/29 07:43:56;;;;;;;2.40;1.03;;;16.80;45.80;;;;;;5050949;28;20198;-70
2023/05/29 07:46:23;;;;;;;2.40;1.57;;;16.80;46.10;;;;;;5049292;28;20184;-71
2023/05/29 07:48:50;;;;;;;3.57;1.27;;;16.80;46.30;;;;;;5049462;28;20269;-68
2023/05/29 07:51:18;;;;;;;1.10;1.00;;;16.80;46.00;;;;;;5046859;28;20258;-68
2023/05/29 07:53:46;;;;;;;2.13;1.40;;;16.80;45.90;;;;;;5054491;28;20190;-69
2023/05/29 07:56:13;;;;;;;3.13;1.50;;;16.80;46.00;;;;;;5047467;28;20179;-71
2023/05/29 07:58:41;;;;;;;4.30;1.20;;;16.70;46.10;;;;;;5050761;28;20218;-69
2023/05/29 08:01:08;;;;;;;3.77;1.30;;;16.70;45.50;;;;;;5052096;28;20174;-69
2023/05/29 08:03:36;;;;;;;3.03;1.30;;;16.70;45.50;;;;;;5053281;28;20323;-67
2023/05/29 08:06:04;;;;;;;2.20;0.97;;;16.70;45.40;;;;;;5051492;28;20188;-71
2023/05/29 08:08:31;;;;;;;2.63;1.10;;;16.70;45.40;;;;;;5051183;28;20545;-68
2023/05/29 08:10:59;;;;;;;2.90;1.10;;;16.70;45.00;;;;;;5051219;28;20195;-69
2023/05/29 08:13:27;;;;;;;1.60;1.10;;;16.70;45.00;;;;;;5050375;28;20200;-68
2023/05/29 08:15:54;;;;;;;3.63;1.20;;;16.70;45.40;;;;;;5051510;28;20243;-71
2023/05/29 08:18:25;;;;;;;4.27;1.10;;;16.60;45.50;;;;;;5051987;28;20697;-69
2023/05/29 08:20:53;;;;;;;1.57;0.90;;;16.50;45.50;;;;;;5049624;28;20632;-69
2023/05/29 08:23:20;;;;;;;3.00;1.20;;;16.50;45.80;;;;;;5047027;28;20330;-68
2023/05/29 08:25:48;;;;;;;2.17;1.40;;;16.50;45.60;;;;;;5049776;28;20179;-72
2023/05/29 08:28:18;;;;;;;2.03;1.17;;;16.50;45.80;;;;;;5045317;28;20222;-71
2023/05/29 08:30:46;;;;;;;2.63;1.10;;;16.40;46.00;;;;;;5045389;28;20219;-68
2023/05/29 08:33:13;;;;;;;4.50;1.73;;;16.30;46.10;;;;;;5050913;28;21069;-68
2023/05/29 08:35:40;;;;;;;2.47;1.20;;;16.30;46.40;;;;;;5051349;28;20181;-70
2023/05/29 08:38:07;;;;;;;2.87;1.30;;;16.20;46.60;;;;;;5051250;28;20554;-69
2023/05/29 08:40:35;;;;;;;1.43;1.23;;;16.20;46.70;;;;;;5051723;28;20209;-68
2023/05/29 08:43:23;;;;;;;3.10;1.60;;;16.10;47.00;;;;;;5051302;28;20186;-67
2023/05/29 08:45:55;;;;;;;3.23;1.37;;;16.10;47.10;;;;;;5039991;28;20199;-71
2023/05/29 08:48:27;;;;;;;3.10;1.80;;;16.00;47.10;;;;;;5050490;28;20184;-69
2023/05/29 08:50:56;;;;;;;4.40;1.70;;;16.00;47.60;;;;;;5050292;28;20175;-67
2023/05/29 08:53:24;;;;;;;2.33;1.40;;;15.90;48.00;;;;;;5051219;28;20183;-67
2023/05/29 08:55:53;;;;;;;2.40;1.80;;;15.80;48.10;;;;;;5051080;28;20226;-68
2023/05/29 08:58:22;;;;;;;1.97;1.40;;;15.80;48.40;;;;;;5050391;28;20340;-67
2023/05/29 09:00:50;;;;;;;2.13;1.40;;;15.80;48.60;;;;;;5051496;28;20189;-67
2023/05/29 09:03:20;;;;;;;2.40;1.60;;;15.70;49.10;;;;;;5049024;28;20285;-69
2023/05/29 09:05:48;;;;;;;2.73;1.30;;;15.60;50.10;;;;;;5046623;28;20227;-69
2023/05/29 09:08:16;;;;;;;3.43;1.60;;;15.50;50.10;;;;;;5047680;28;20194;-69
2023/05/29 09:10:44;;;;;;;4.87;1.63;;;15.50;50.30;;;;;;5046079;28;20710;-68
2023/05/29 09:13:14;;;;;;;2.90;1.27;;;15.30;50.50;;;;;;5050171;28;20222;-69
2023/05/29 09:15:45;;;;;;;4.13;1.93;;;15.40;50.50;;;;;;5047428;28;20241;-68
2023/05/29 09:18:12;;;;;;;3.43;1.70;;;15.40;50.60;;;;;;5047958;28;20265;-67
2023/05/29 09:20:40;;;;;;;5.93;1.60;;;15.30;50.90;;;;;;5049617;28;20201;-68
2023/05/29 09:23:09;;;;;;;2.87;1.70;;;15.30;51.50;;;;;;5047813;28;20185;-71
2023/05/29 09:25:43;;;;;;;4.77;1.90;;;15.20;51.40;;;;;;5049586;28;20180;-70
2023/05/29 09:28:10;;;;;;;5.73;2.27;;;15.10;51.80;;;;;;5047852;28;20648;-67
2023/05/29 09:30:46;;;;;;;5.27;2.20;;;15.00;52.10;;;;;;5046271;28;20220;-68
2023/05/29 09:33:15;;;;;;;4.13;1.97;;;14.90;52.30;;;;;;5048148;28;20194;-66
2023/05/29 09:35:45;;;;;;;5.57;2.40;;;14.90;52.50;;;;;;5045650;28;20615;-69
2023/05/29 09:38:17;;;;;;;3.97;2.17;;;14.90;52.90;;;;;;5046882;28;20227;-68
2023/05/29 09:40:48;;;;;;;3.50;2.03;;;14.80;53.20;;;;;;5046844;28;20184;-67
2023/05/29 09:43:19;;;;;;;3.30;1.70;;;14.80;54.10;;;;;;5049160;28;20650;-69
2023/05/29 09:45:50;;;;;;;4.03;2.10;;;14.70;54.60;;;;;;5044810;28;20180;-68
2023/05/29 09:48:26;;;;;;;4.90;2.20;;;14.60;54.70;;;;;;5046903;28;20226;-67
2023/05/29 09:50:55;;;;;;;4.27;2.33;;;14.60;54.80;;;;;;5046945;28;20205;-67
2023/05/29 09:53:24;;;;;;;5.13;2.13;;;14.50;54.40;;;;;;5048728;28;20180;-67
2023/05/29 09:55:53;;;;;;;3.77;2.00;;;14.50;53.70;;;;;;5050587;28;20236;-67
2023/05/29 09:58:23;;;;;;;3.57;1.77;;;14.60;53.80;;;;;;5047994;28;20219;-70
2023/05/29 10:00:53;;;;;;;2.50;1.87;;;14.60;53.40;;;;;;5048348;28;20176;-66
2023/05/29 10:03:23;;;;;;;3.30;1.70;;;14.60;53.00;;;;;;5045390;28;20187;-69
2023/05/29 10:05:57;;;;;;;6.27;2.30;;;14.50;53.00;;;;;;5049758;28;20252;-67
2023/05/29 10:08:25;;;;;;;5.77;2.37;;;14.50;53.30;;;;;;5048753;28;20195;-69
2023/05/29 10:11:15;;;;;;;7.97;2.50;;;14.30;54.20;;;;;;5049631;28;20319;-68
2023/05/29 10:13:48;;;;;;;4.93;2.40;;;14.30;55.20;;;;;;5047845;28;20188;-67
2023/05/29 10:16:19;;;;;;;6.77;2.67;;;14.20;56.40;;;;;;5049051;28;20199;-69
2023/05/29 10:18:55;;;;;;;7.00;2.70;;;14.10;56.80;;;;;;5048471;28;20220;-69
2023/05/29 10:21:27;;;;;;;5.00;2.37;;;14.00;56.60;;;;;;5048139;28;20179;-66
2023/05/29 10:23:56;;;;;;;3.50;2.37;;;13.90;56.60;;;;;;5032672;28;20184;-68
2023/05/29 10:26:27;;;;;;;3.53;2.20;;;13.80;57.30;;;;;;5029823;28;20547;-67
2023/05/29 10:29:04;;;;;;;4.50;2.33;;;13.80;57.00;;;;;;5046539;28;20683;-68
2023/05/29 10:31:49;;;;;;;6.40;2.90;;;13.80;57.80;;;;;;5043838;28;20321;-68
2023/05/29 10:34:22;;;;;;;2.77;1.93;;;13.70;57.70;;;;;;5050631;28;20262;-67
2023/05/29 10:37:06;;;;;;;2.50;2.00;;;13.60;57.70;;;;;;5048149;28;20180;-68
2023/05/29 10:39:34;;;;;;;5.63;2.40;;;13.50;58.50;;;;;;5052737;28;20204;-69
2023/05/29 10:42:01;;;;;;;5.70;2.40;;;13.50;58.30;;;;;;5049960;28;20184;-68
2023/05/29 10:44:32;;;;;;;8.63;2.80;;;13.50;58.20;;;;;;5052140;28;20214;-67
2023/05/29 10:47:05;;;;;;;6.33;2.60;;;13.50;58.10;;;;;;5049445;28;20237;-69
2023/05/29 10:49:32;;;;;;;8.80;2.60;;;13.40;58.60;;;;;;5052466;28;20719;-70
2023/05/29 10:52:00;;;;;;;7.87;2.90;;;13.30;58.70;;;;;;5052433;28;20180;-71
2023/05/29 10:54:39;;;;;;;6.27;2.60;;;13.30;59.00;;;;;;5054232;28;20595;-70
2023/05/29 10:57:12;;;;;;;6.97;2.60;;;13.20;59.60;;;;;;5051632;28;20215;-70
2023/05/29 10:59:40;;;;;;;7.20;2.73;;;13.20;60.10;;;;;;5052881;28;20192;-68
2023/05/29 11:02:07;;;;;;;4.83;2.80;;;13.20;59.90;;;;;;5053446;28;20599;-69
2023/05/29 11:04:36;;;;;;;6.67;2.70;;;13.20;59.40;;;;;;5052298;28;20292;-70
2023/05/29 11:07:06;;;;;;;4.87;2.83;;;13.20;60.00;;;;;;5035327;28;20258;-68
2023/05/29 11:09:39;;;;;;;8.70;3.20;;;13.10;60.80;;;;;;5053237;28;20245;-67
2023/05/29 11:12:35;;;;;;;7.43;3.37;;;13.10;61.70;;;;;;5050913;28;20216;-70
2023/05/29 11:15:07;;;;;;;7.37;3.10;;;13.00;62.60;;;;;;5058274;28;20173;-70
2023/05/29 11:17:45;;;;;;;5.03;3.10;;;12.90;62.90;;;;;;5049186;28;20689;-70
2023/05/29 11:20:41;;;;;;;6.80;3.60;;;12.90;62.90;;;;;;5050667;28;20505;-70
2023/05/29 11:23:08;;;;;;;2.80;2.27;;;12.80;61.50;;;;;;5004504;28;20200;-70
2023/05/29 11:25:37;;;;;;;6.87;2.70;;;13.20;59.40;;;;;;5051596;28;20184;-68
2023/05/29 11:28:10;;;;;;;4.27;2.77;;;13.30;58.90;;;;;;5051304;28;20275;-68
2023/05/29 11:30:48;;;;;;;5.83;2.83;;;13.70;58.30;;;;;;5052206;28;20230;-68
2023/05/29 11:33:28;;;;;;;7.17;3.30;;;13.60;59.00;;;;;;5051750;28;20215;-67
2023/05/29 11:36:00;;;;;;;6.53;2.73;;;13.50;59.40;;;;;;5047984;28;20527;-70
2023/05/29 11:38:30;;;;;;;5.93;3.20;;;13.40;59.20;;;;;;5048358;28;20219;-68
2023/05/29 11:41:01;;;;;;;7.17;3.23;;;13.40;59.80;;;;;;5053229;28;20648;-71
2023/05/29 11:43:28;;;;;;;4.10;2.73;;;13.40;60.10;;;;;;5053134;28;20184;-69
2023/05/29 11:45:56;;;;;;;7.37;3.00;;;13.40;59.40;;;;;;5051857;28;20535;-67
2023/05/29 11:48:23;;;;;;;5.63;2.70;;;13.40;59.30;;;;;;5052622;28;20254;-68
2023/05/29 11:50:51;;;;;;;5.03;2.50;;;13.50;59.00;;;;;;5053044;28;20593;-67
2023/05/29 11:53:18;;;;;;;6.70;3.00;;;13.50;59.10;;;;;;5048992;28;20548;-68
2023/05/29 11:55:46;;;;;;;5.37;2.40;;;13.60;59.00;;;;;;5050590;28;20519;-68
2023/05/29 11:58:16;;;;;;;2.57;2.00;;;13.70;59.00;;;;;;5052726;28;20223;-67
2023/05/29 12:00:44;;;;;;;3.30;2.30;;;13.70;59.10;;;;;;5051936;28;20180;-67
2023/05/29 12:03:12;;;;;;;4.53;2.20;;;13.70;59.10;;;;;;5052118;28;20184;-67
2023/05/29 12:05:52;;;;;;;4.13;2.20;;;13.80;59.10;;;;;;5050924;28;20181;-67
2023/05/29 12:08:23;;;;;;;4.23;1.97;;;13.80;59.20;;;;;;5050715;28;20198;-67
2023/05/29 12:10:52;;;;;;;4.33;2.30;;;13.70;59.60;;;;;;5051439;28;20180;-67
2023/05/29 12:13:20;;;;;;;5.60;1.90;;;13.60;59.80;;;;;;5051284;28;20286;-68
2023/05/29 12:15:53;;;;;;;3.07;1.80;;;13.50;60.40;;;;;;5050804;28;20199;-67
2023/05/29 12:18:21;;;;;;;4.20;2.10;;;13.50;61.20;;;;;;5031061;28;20203;-67
2023/05/29 12:20:48;;;;;;;5.03;2.00;;;13.50;61.00;;;;;;5051323;28;20691;-67
2023/05/29 12:23:20;;;;;;;3.40;2.40;;;13.40;61.80;;;;;;5045288;28;20184;-66
2023/05/29 12:25:47;;;;;;;4.00;2.07;;;13.30;62.20;;;;;;5050863;28;20184;-67
2023/05/29 12:28:18;;;;;;;4.13;2.30;;;13.20;62.80;;;;;;5045563;28;20195;-67
2023/05/29 12:30:49;;;;;;;4.07;2.20;;;13.20;63.10;;;;;;5048759;28;20239;-66
2023/05/29 12:33:35;;;;;;;4.70;2.50;;;13.10;63.60;;;;;;5045395;28;20187;-67
2023/05/29 12:36:06;;;;;;;4.00;2.30;;;13.00;63.80;;;;;;5051134;28;20202;-67
2023/05/29 12:38:46;;;;;;;4.60;2.13;;;13.00;63.80;;;;;;5048472;28;20251;-69
2023/05/29 12:41:27;;;;;;;4.27;2.23;;;13.10;63.80;;;;;;5048142;28;20172;-67
2023/05/29 12:44:01;;;;;;;3.33;2.17;;;13.10;63.60;;;;;;5034488;28;20201;-72
2023/05/29 12:46:35;;;;;;;5.97;2.50;;;13.10;63.40;;;;;;5046476;28;20238;-68
2023/05/29 12:49:15;;;;;;;4.07;2.20;;;13.20;63.70;;;;;;5049090;28;20188;-70
2023/05/29 12:51:44;;;;;;;6.10;2.40;;;13.10;64.20;;;;;;5034006;28;20190;-71
2023/05/29 12:54:16;;;;;;;4.60;2.37;;;13.10;64.50;;;;;;5047669;28;20203;-70
2023/05/29 12:56:44;;;;;;;9.47;2.33;;;13.00;64.20;;;;;;5051851;28;20188;-68
2023/05/29 12:59:12;;;;;;;5.83;2.30;;;13.00;64.50;;;;;;5048958;28;20223;-71